Time;durP1;ratioP1;P1;durP2;ratioP2;P2;SDS_P1;SDS_P2;PMS_P1;PMS_P2;Temp;Humidity;BMP_temperature;BMP_pressure;BME280_temperature;BME280_humidity;BME280_pressure;Samples;Min_cycle;Max_cycle;Signal;HPM_P1;HPM_P2
2023/03/24 06:02:33;;;;;;;;;1.00;0.00;;;;;14.45;68.03;-19596.78;4972091;23;45429;-85
2023/03/24 06:05:00;;;;;;;;;0.00;0.00;;;;;14.57;68.14;-19600.00;4950173;28;45431;-86
2023/03/24 06:07:29;;;;;;;;;0.00;0.00;;;;;14.44;67.66;-19596.38;4975423;28;46099;-83
2023/03/24 06:09:56;;;;;;;;;0.00;0.00;;;;;14.60;67.91;-19600.53;4968367;28;45499;-84
2023/03/24 06:12:22;;;;;;;;;0.00;0.00;;;;;14.69;67.51;-19603.09;4970249;28;45676;-84
2023/03/24 06:14:48;;;;;;;;;0.00;0.00;;;;;14.22;67.28;-19590.72;4972137;28;45444;-85
2023/03/24 06:17:13;;;;;;;;;0.00;0.00;;;;;14.44;67.70;-19596.38;4961954;28;46699;-84
2023/03/24 06:19:48;;;;;;;;;0.00;0.00;;;;;13.70;67.36;-19577.03;4956662;28;45653;-87
2023/03/24 06:22:14;;;;;;;;;0.00;0.00;;;;;14.43;67.36;-19596.22;4968633;28;45560;-84
2023/03/24 06:24:39;;;;;;;;;0.00;0.00;;;;;14.62;67.47;-19599.25;4974496;28;45409;-83
2023/03/24 06:27:07;;;;;;;;;0.00;0.00;;;;;14.20;67.24;-19588.25;4964167;28;47557;-84
2023/03/24 06:29:33;;;;;;;;;0.00;0.00;;;;;14.60;67.34;-19598.59;4968246;28;45437;-83
2023/03/24 06:31:58;;;;;;;;;0.00;0.00;;;;;14.42;67.31;-19594.03;4970268;28;45515;-84
2023/03/24 06:34:25;;;;;;;;;1.00;0.00;;;;;14.30;67.38;-19592.75;4974856;28;45336;-86
2023/03/24 06:36:50;;;;;;;;;0.00;0.00;;;;;13.81;67.51;-19579.84;4969562;28;45663;-87
2023/03/24 06:39:16;;;;;;;;;0.00;0.00;;;;;14.20;67.49;-19588.09;4974749;28;45947;-86
2023/03/24 06:41:57;;;;;;;;;1.00;0.00;;;;;13.58;66.92;-19571.97;4959175;28;47033;-88
2023/03/24 06:44:22;;;;;;;;;0.00;0.00;;;;;13.98;67.13;-19582.31;4969516;28;45519;-87
2023/03/24 06:47:03;;;;;;;;;0.00;0.00;;;;;14.05;67.29;-19584.22;4971841;28;46137;-87
2023/03/24 06:50:01;;;;;;;;;0.00;0.00;;;;;13.69;67.09;-19574.81;4977767;28;45426;-87
2023/03/24 06:52:26;;;;;;;;;0.00;0.00;;;;;13.10;66.23;-19559.47;4976975;28;45508;-86
2023/03/24 06:55:26;;;;;;;;;0.00;0.00;;;;;13.68;66.39;-19574.53;4977250;28;45632;-90
2023/03/24 06:57:51;;;;;;;;;0.00;0.00;;;;;13.82;66.60;-19578.31;4976356;28;46671;-89
2023/03/24 07:03:52;;;;;;;;;1.00;0.00;;;;;14.59;66.26;-19265.31;5114527;23;45513;-89
2023/03/24 07:07:04;;;;;;;;;0.00;0.00;;;;;14.59;66.59;-19265.44;4977476;28;45516;-91
2023/03/24 07:09:39;;;;;;;;;0.00;0.00;;;;;13.34;66.12;-19233.19;4954903;28;48126;-89
2023/03/24 07:12:22;;;;;;;;;0.00;0.00;;;;;13.26;66.11;-19231.34;4979270;28;45392;-88
2023/03/24 07:14:51;;;;;;;;;0.00;0.00;;;;;13.75;66.60;-19243.72;4982745;28;45441;-88
2023/03/24 07:17:16;;;;;;;;;0.00;0.00;;;;;14.61;66.02;-19265.97;4980184;28;45578;-86
2023/03/24 07:19:54;;;;;;;;;1.00;0.00;;;;;13.81;66.13;-19245.31;4978807;28;48147;-88
2023/03/24 07:22:19;;;;;;;;;0.67;0.00;;;;;13.02;65.91;-19225.00;4976739;28;45459;-88
2023/03/24 07:24:45;;;;;;;;;0.00;0.00;;;;;13.33;65.46;-19233.06;4973637;28;45476;-85
2023/03/24 07:27:10;;;;;;;;;0.00;0.00;;;;;13.53;65.75;-19238.19;4977165;28;45486;-86
2023/03/24 07:29:36;;;;;;;;;0.00;0.00;;;;;13.70;65.86;-19242.53;4974849;28;46914;-86
2023/03/24 07:32:02;;;;;;;;;0.00;0.00;;;;;14.72;66.02;-19268.88;4976463;28;45620;-86
2023/03/24 07:34:28;;;;;;;;;0.00;0.00;;;;;13.78;65.85;-19244.66;4976285;28;45328;-86
2023/03/24 07:36:56;;;;;;;;;0.00;0.00;;;;;13.92;66.20;-19248.19;4976880;28;45574;-86
2023/03/24 07:39:22;;;;;;;;;0.00;0.00;;;;;14.64;65.61;-19266.63;4977526;28;45403;-88
2023/03/24 07:41:47;;;;;;;;;2.00;0.00;;;;;13.83;65.70;-19245.97;4977519;28;45507;-90
2023/03/24 07:44:13;;;;;;;;;1.00;0.00;;;;;13.85;65.34;-19246.50;4977924;28;45317;-91
2023/03/24 07:46:41;;;;;;;;;0.33;0.00;;;;;13.91;65.76;-19248.06;4980203;28;46209;-89
2023/03/24 07:49:07;;;;;;;;;0.00;0.00;;;;;14.02;65.62;-19250.84;4978775;28;45265;-91
2023/03/24 07:51:35;;;;;;;;;0.00;0.00;;;;;14.92;65.36;-18940.78;4977496;28;45363;-88
2023/03/24 07:54:01;;;;;;;;;2.00;0.00;;;;;13.50;65.44;-18904.94;4985993;28;45477;-90
2023/03/24 07:56:31;;;;;;;;;0.00;0.00;;;;;14.13;65.56;-18920.81;4992672;28;45411;-90
2023/03/24 07:59:06;;;;;;;;;0.33;0.00;;;;;14.00;65.59;-18917.59;4978001;28;48066;-89
2023/03/24 08:01:31;;;;;;;;;1.00;1.00;;;;;13.57;64.87;-18906.63;4977395;28;45304;-91
2023/03/24 08:03:57;;;;;;;;;1.00;0.00;;;;;13.84;65.03;-18913.59;4976352;28;45458;-91
2023/03/24 08:06:22;;;;;;;;;0.00;0.00;;;;;14.54;64.85;-18931.25;4977682;28;45430;-90
2023/03/24 08:08:50;;;;;;;;;0.00;0.00;;;;;14.15;64.68;-18921.44;4977038;28;46287;-90
2023/03/24 08:11:15;;;;;;;;;0.00;0.00;;;;;13.63;64.59;-18908.16;4972623;28;45370;-85
2023/03/24 08:17:02;;;;;;;;;0.00;0.00;;;;;13.76;64.19;-18911.41;4973207;28;45491;-85
2023/03/24 08:19:37;;;;;;;;;1.00;0.00;;;;;13.88;64.45;-18914.63;4975982;28;45387;-86
2023/03/24 08:22:02;;;;;;;;;1.33;0.00;;;;;14.17;63.98;-18921.84;4976343;28;45337;-84
2023/03/24 08:24:31;;;;;;;;;1.00;0.00;;;;;13.92;63.77;-18582.94;4976264;28;45343;-85
2023/03/24 08:27:01;;;;;;;;;0.00;0.00;;;;;14.38;63.26;-18594.16;4976331;28;45460;-86
2023/03/24 08:29:38;;;;;;;;;1.33;0.00;;;;;14.98;63.74;-18609.06;4975668;28;46059;-86
2023/03/24 08:35:31;;;;;;;;;2.00;0.00;;;;;14.30;63.13;-18259.31;4976760;28;45396;-85
2023/03/24 08:38:43;;;;;;;;;0.00;0.00;;;;;15.71;62.50;-18293.25;4977240;28;45366;-85
2023/03/24 08:44:33;;;;;;;;;0.00;0.00;;;;;15.09;61.97;-17944.94;4979370;28;45464;-86
2023/03/24 08:47:01;;;;;;;;;0.00;0.00;;;;;14.93;62.10;-17941.19;4985563;28;45732;-85
2023/03/24 08:52:24;;;;;;;;;0.00;0.00;;;;;14.41;61.84;-17595.84;4983791;28;45476;-84
2023/03/24 08:55:18;;;;;;;;;0.00;0.00;;;;;15.87;62.36;-17963.25;4999898;28;45330;-85
2023/03/24 08:57:44;;;;;;;;;0.00;0.00;;;;;15.65;61.52;-17624.25;4977465;28;45495;-84
2023/03/24 09:00:14;;;;;;;;;0.00;0.00;;;;;14.98;60.06;-16942.13;4979874;28;45467;-85
2023/03/24 09:02:53;;;;;;;;;0.00;0.00;;;;;14.90;60.69;-16607.03;4965951;28;48293;-83
2023/03/24 09:05:21;;;;;;;;;0.00;0.00;;;;;15.95;60.31;-16629.50;4980538;28;45373;-84
2023/03/24 09:07:48;;;;;;;;;1.00;0.00;;;;;15.74;60.03;-16625.00;4998165;28;45421;-85
2023/03/24 09:12:57;;;;;;;;;0.00;0.00;;;;;15.26;60.24;-16614.59;5034447;23;73852;-84
2023/03/24 09:17:56;;;;;;;;;1.67;0.00;;;;;15.27;60.00;-15947.53;5068996;23;67912;-84
2023/03/24 09:22:57;;;;;;;;;0.00;0.00;;;;;16.24;58.46;-15298.97;5078390;22;45519;-84
2023/03/24 09:25:22;;;;;;;;;0.00;0.00;;;;;15.60;57.46;-14284.69;4979565;28;45508;-83
2023/03/24 09:27:48;;;;;;;;;0.00;0.00;;;;;15.96;57.75;-13956.91;4965785;28;45531;-83
2023/03/24 09:30:15;;;;;;;;;0.00;0.00;;;;;16.10;58.03;-14293.56;4977437;28;45510;-83
2023/03/24 09:35:53;;;;;;;;;0.00;0.00;;;;;16.41;57.20;-13630.06;5083966;22;47941;-85
2023/03/24 09:38:18;;;;;;;;;0.00;0.00;;;;;16.14;57.46;-13291.28;4973797;28;45219;-86
2023/03/24 09:40:45;;;;;;;;;1.00;0.00;;;;;15.10;56.57;-13274.56;4951673;28;45300;-86
2023/03/24 09:45:55;;;;;;;;;0.00;0.00;;;;;16.33;56.58;-12959.84;4976506;28;45669;-84
2023/03/24 09:48:33;;;;;;;;;1.67;0.00;;;;;16.63;57.05;-12964.47;4979652;28;45466;-85
2023/03/24 09:51:05;;;;;;;;;0.00;0.00;;;;;16.45;57.49;-12961.69;4979217;28;45391;-85
2023/03/24 09:53:42;;;;;;;;;1.00;0.00;;;;;16.39;56.95;-12291.66;4976273;28;47096;-85
2023/03/24 09:56:13;;;;;;;;;2.00;0.00;;;;;16.06;56.22;-11952.44;4977079;28;45479;-85
2023/03/24 10:01:20;;;;;;;;;1.00;0.00;;;;;16.79;56.53;-11962.63;5218497;23;45294;-84
2023/03/24 10:04:12;;;;;;;;;0.00;0.00;;;;;16.88;55.77;-11628.94;4979206;28;46336;-85
2023/03/24 10:06:40;;;;;;;;;0.00;0.00;;;;;16.44;56.77;-12292.34;5274487;22;45557;-86
2023/03/24 10:09:08;;;;;;;;;0.00;0.00;;;;;16.97;56.40;-11965.03;4964123;28;45494;-87
2023/03/24 10:12:05;;;;;;;;;0.00;0.00;;;;;16.86;56.24;-11963.53;4970782;28;45317;-87
2023/03/24 10:15:03;;;;;;;;;0.67;0.00;;;;;17.24;54.97;-10963.47;4968046;28;45613;-86
2023/03/24 10:17:55;;;;;;;;;0.00;0.00;;;;;17.29;54.76;-10628.94;4958376;28;45576;-87
2023/03/24 10:20:38;;;;;;;;;0.00;0.00;;;;;17.32;54.92;-10629.19;4958044;28;45374;-85
2023/03/24 10:26:47;;;;;;;;;1.00;0.00;;;;;16.54;52.46;-8610.59;5590712;23;45501;-85
2023/03/24 10:32:28;;;;;;;;;0.00;0.00;;;;;17.50;54.08;-8954.31;5304671;23;45563;-86
2023/03/24 10:34:59;;;;;;;;;0.00;0.00;;;;;17.30;54.23;-8617.16;4958589;28;45520;-85
2023/03/24 10:37:26;;;;;;;;;1.00;0.00;;;;;16.39;53.96;-7939.44;4959237;28;45456;-84
2023/03/24 10:39:51;;;;;;;;;0.00;0.00;;;;;17.28;53.88;-7610.69;4959385;28;45347;-83
2023/03/24 10:42:20;;;;;;;;;0.00;0.00;;;;;17.30;53.22;-7275.31;4958033;28;45669;-83
2023/03/24 10:44:48;;;;;;;;;0.00;0.00;;;;;17.31;54.60;-7610.88;4959551;28;45453;-85
2023/03/24 10:47:21;;;;;;;;;0.00;0.00;;;;;16.80;54.62;-7607.31;4959050;28;46509;-86
2023/03/24 10:49:59;;;;;;;;;0.00;0.00;;;;;17.04;54.78;-7944.31;4941978;28;45285;-82
2023/03/24 10:52:25;;;;;;;;;0.00;0.00;;;;;17.28;53.94;-7946.13;4959167;28;45468;-83
2023/03/24 10:55:02;;;;;;;;;1.00;1.00;;;;;17.45;54.03;-7947.41;4959597;28;45436;-83
2023/03/24 10:57:29;;;;;;;;;0.00;0.00;;;;;17.61;53.03;-7948.59;4957588;28;49101;-84
2023/03/24 11:00:17;;;;;;;;;0.00;0.00;;;;;18.23;53.21;-8625.06;4960853;28;45335;-91
2023/03/24 11:06:35;;;;;;;;;0.33;0.00;;;;;17.22;51.40;-6268.22;4959666;28;45422;-91
2023/03/24 11:09:44;;;;;;;;;0.00;0.00;;;;;18.88;50.22;-5266.66;4883000;29;45697;-92
2023/03/24 11:12:48;;;;;;;;;0.00;0.00;;;;;18.54;50.69;-5601.94;4879869;29;45479;-92
2023/03/24 11:19:00;;;;;;;;;0.00;0.00;;;;;19.87;50.73;-6280.81;4919975;23;45439;-87
2023/03/24 11:21:31;;;;;;;;;0.00;0.00;;;;;20.40;50.87;-7294.94;4938075;28;45516;-87
2023/03/24 11:24:00;;;;;;;;;0.00;0.00;;;;;20.83;50.16;-7635.00;4938642;28;45296;-87
2023/03/24 11:26:37;;;;;;;;;0.00;0.00;;;;;21.12;49.46;-6286.63;4938369;28;45710;-87
2023/03/24 11:29:08;;;;;;;;;1.00;0.00;;;;;21.29;49.13;-4936.19;4939389;28;45451;-87
2023/03/24 11:31:38;;;;;;;;;0.00;0.00;;;;;21.47;47.61;-3246.47;4938055;28;46662;-88
2023/03/24 11:34:23;;;;;;;;;0.00;0.00;;;;;21.37;47.29;-879.41;4938598;28;45568;-89
2023/03/24 11:37:11;;;;;;;;;0.00;0.00;;;;;21.17;47.24;3856.84;4938912;28;45417;-87
2023/03/24 11:39:37;;;;;;;;;0.00;0.00;;;;;20.94;48.94;809.44;4938598;28;45530;-86
2023/03/24 11:42:26;;;;;;;;;0.00;0.00;;;;;20.96;51.50;-2570.84;4938105;28;47038;-87
2023/03/24 11:44:52;;;;;;;;;0.00;0.00;;;;;21.12;51.40;-4597.97;4938733;28;45413;-87
2023/03/24 11:47:31;;;;;;;;;0.00;0.00;;;;;21.83;49.01;-3584.69;4938595;28;45527;-87
2023/03/24 11:50:05;;;;;;;;;1.00;0.00;;;;;22.09;48.88;-3584.75;4938572;28;45456;-88
2023/03/24 11:52:38;;;;;;;;;0.25;0.00;;;;;22.45;47.63;-536.22;4938618;28;47493;-88
2023/03/24 11:55:16;;;;;;;;;0.00;0.00;;;;;22.72;47.04;482.19;4938827;28;45497;-87
2023/03/24 11:57:50;;;;;;;;;0.00;0.00;;;;;23.27;45.63;1843.47;4939122;28;45254;-87
2023/03/24 12:00:40;;;;;;;;;0.00;0.00;;;;;23.22;42.61;13062.53;4946669;28;45225;-87
2023/03/24 12:03:36;;;;;;;;;0.00;0.00;;;;;22.85;43.59;15435.56;4931429;28;47321;-87
2023/03/24 12:06:34;;;;;;;;;0.00;0.00;;;;;22.37;44.58;16101.81;4938983;28;45333;-87
2023/03/24 12:09:06;;;;;;;;;0.00;0.00;;;;;22.55;43.98;19512.94;4938832;28;45432;-87
2023/03/24 12:11:55;;;;;;;;;0.00;0.00;;;;;22.37;42.48;24618.16;4939070;28;45446;-87
2023/03/24 12:14:36;;;;;;;;;0.00;0.00;;;;;21.61;42.82;33253.41;4938650;28;46610;-87
2023/03/24 12:17:13;;;;;;;;;0.00;0.00;;;;;21.45;42.33;39215.56;4940260;28;45374;-85
2023/03/24 12:20:15;;;;;;;;;0.00;0.00;;;;;21.28;43.50;39127.00;4929312;28;45350;-85
2023/03/24 12:23:16;;;;;;;;;1.00;0.00;;;;;20.80;44.63;38502.16;4939095;28;45542;-86
2023/03/24 12:26:07;;;;;;;;;0.00;0.00;;;;;20.61;46.34;33767.28;4938004;28;45997;-86
2023/03/24 12:28:47;;;;;;;;;0.00;0.00;;;;;20.86;45.83;31619.44;4921381;28;45370;-86
2023/03/24 12:31:40;;;;;;;;;0.00;0.00;;;;;21.22;46.09;29740.59;4938287;28;45494;-86
2023/03/24 12:34:27;;;;;;;;;0.00;0.00;;;;;21.58;44.46;31758.16;4931216;28;45422;-86
2023/03/24 12:37:25;;;;;;;;;0.00;0.00;;;;;21.66;44.79;31048.28;4938175;28;46702;-87
2023/03/24 12:40:02;;;;;;;;;0.00;0.00;;;;;22.43;44.86;27014.41;4933727;28;45481;-86
2023/03/24 12:42:38;;;;;;;;;0.00;0.00;;;;;22.87;44.52;25664.59;4938173;28;45436;-87
2023/03/24 12:45:15;;;;;;;;;0.00;0.00;;;;;22.94;43.46;29583.31;4937778;28;45402;-87
2023/03/24 12:48:01;;;;;;;;;0.00;0.00;;;;;22.95;42.73;32666.47;4937861;28;45479;-87
2023/03/24 12:50:45;;;;;;;;;0.00;0.00;;;;;23.18;43.03;30068.53;4936550;28;45376;-86
2023/03/24 12:53:23;;;;;;;;;0.00;0.00;;;;;23.27;44.00;29624.59;4935925;28;45347;-87
2023/03/24 12:56:17;;;;;;;;;1.00;0.00;;;;;22.93;43.51;32144.22;4937084;28;45510;-87
2023/03/24 12:58:48;;;;;;;;;1.00;0.00;;;;;22.75;44.20;34765.66;4937429;28;47565;-84
2023/03/24 13:01:38;;;;;;;;;0.50;0.00;;;;;22.04;45.49;31426.53;4934302;28;45471;-84
2023/03/24 13:04:21;;;;;;;;;0.00;0.00;;;;;22.13;47.50;21200.09;4931770;28;45600;-84
2023/03/24 13:06:55;;;;;;;;;0.00;0.00;;;;;21.85;48.51;19146.88;4938402;28;45305;-84
2023/03/24 13:09:58;;;;;;;;;0.00;0.00;;;;;21.65;49.95;15739.53;4938331;28;45363;-85
2023/03/24 13:12:42;;;;;;;;;0.00;0.00;;;;;21.46;50.00;15733.78;4937680;28;45403;-85
2023/03/24 13:15:10;;;;;;;;;0.00;0.00;;;;;21.57;49.82;13698.78;4937680;28;45549;-88
2023/03/24 13:17:39;;;;;;;;;0.00;0.00;;;;;21.59;49.43;15737.81;4937892;28;45239;-87
2023/03/24 13:20:11;;;;;;;;;1.00;0.00;;;;;21.48;49.21;16414.00;4937196;28;46506;-87
2023/03/24 13:22:37;;;;;;;;;0.00;0.00;;;;;21.71;48.11;17781.34;4937371;28;45294;-86
2023/03/24 13:25:18;;;;;;;;;0.00;0.00;;;;;21.97;47.51;18130.22;4937045;28;45409;-87
2023/03/24 13:27:49;;;;;;;;;1.00;0.00;;;;;22.01;46.75;19152.75;4937826;28;45394;-87
2023/03/24 13:30:30;;;;;;;;;1.75;0.00;;;;;22.43;44.12;25985.63;4937975;28;47045;-87
2023/03/24 13:33:00;;;;;;;;;0.00;0.00;;;;;22.47;44.06;27693.97;4940425;28;45340;-87
2023/03/24 13:35:46;;;;;;;;;0.00;0.00;;;;;22.56;42.92;31412.84;4940521;28;45406;-86
2023/03/24 13:38:27;;;;;;;;;0.00;0.00;;;;;22.54;44.96;30872.47;4940444;28;45494;-87
2023/03/24 13:40:54;;;;;;;;;0.00;0.00;;;;;22.54;44.00;33062.19;4921486;28;46656;-87
2023/03/24 13:43:23;;;;;;;;;0.00;0.00;;;;;22.47;44.47;34737.84;4921993;28;45473;-88
2023/03/24 13:45:57;;;;;;;;;0.00;0.00;;;;;22.36;44.63;34798.09;4940726;28;45397;-87
2023/03/24 13:48:30;;;;;;;;;0.00;0.00;;;;;22.12;44.11;38355.44;4940447;28;45338;-88
2023/03/24 13:51:15;;;;;;;;;0.00;0.00;;;;;21.87;42.86;41430.59;4940395;28;46145;-88
2023/03/24 13:53:51;;;;;;;;;0.00;0.00;;;;;21.89;42.61;44700.72;4940780;28;45421;-86
2023/03/24 13:56:35;;;;;;;;;3.67;2.33;;;;;21.81;42.95;44560.66;4940468;28;45572;-87
2023/03/24 13:59:00;;;;;;;;;0.50;0.00;;;;;21.79;43.69;44307.97;4940953;28;45318;-86
2023/03/24 14:01:46;;;;;;;;;0.00;0.00;;;;;21.73;44.14;42971.38;4940033;28;47273;-87
2023/03/24 14:04:17;;;;;;;;;0.00;0.00;;;;;21.87;43.78;42896.41;4940446;28;45420;-86
2023/03/24 14:07:23;;;;;;;;;0.00;0.00;;;;;21.68;43.35;44620.78;4940804;28;45219;-87
2023/03/24 14:10:01;;;;;;;;;0.00;0.00;;;;;21.61;44.64;44096.03;4940446;28;45328;-88
2023/03/24 14:12:30;;;;;;;;;0.00;0.00;;;;;21.35;44.97;43648.91;4940040;28;48912;-88
2023/03/24 14:15:13;;;;;;;;;0.00;0.00;;;;;21.43;43.39;45481.38;4940664;28;45258;-87
2023/03/24 14:17:44;;;;;;;;;0.00;0.00;;;;;21.39;43.62;46836.97;4943982;28;45431;-87
2023/03/24 14:20:13;;;;;;;;;0.00;0.00;;;;;21.29;44.26;46759.22;4959775;28;45495;-86
2023/03/24 14:22:43;;;;;;;;;0.00;0.00;;;;;21.21;44.33;47164.94;4959623;28;47122;-86
2023/03/24 14:25:15;;;;;;;;;0.25;0.25;;;;;21.13;43.91;48385.66;4959424;28;45269;-86
2023/03/24 14:27:46;;;;;;;;;0.00;0.00;;;;;20.80;43.64;48660.66;4958689;28;45328;-86
2023/03/24 14:30:20;;;;;;;;;0.00;0.00;;;;;20.89;44.35;48988.84;4958803;28;45508;-88
2023/03/24 14:32:55;;;;;;;;;0.00;0.00;;;;;20.75;43.99;50322.53;4960838;28;45804;-86
2023/03/24 14:35:30;;;;;;;;;0.00;0.00;;;;;20.81;43.11;50975.25;4956573;28;45495;-88
2023/03/24 14:38:21;;;;;;;;;0.00;0.00;;;;;20.30;43.93;51203.84;4954338;28;45392;-86
2023/03/24 14:40:55;;;;;;;;;0.00;0.00;;;;;20.40;44.93;50688.28;4959613;28;45290;-86
2023/03/24 14:43:27;;;;;;;;;0.00;0.00;;;;;20.16;45.17;50470.13;4958523;28;45544;-87
2023/03/24 14:45:56;;;;;;;;;0.00;0.00;;;;;20.09;45.15;49958.47;4959376;28;45371;-87
2023/03/24 14:48:28;;;;;;;;;0.00;0.00;;;;;20.15;45.33;49627.50;4959904;28;45305;-86
2023/03/24 14:50:59;;;;;;;;;0.00;0.00;;;;;20.02;45.41;49648.25;4960414;28;45507;-90
2023/03/24 14:53:25;;;;;;;;;0.33;0.00;;;;;20.10;45.74;49938.00;4959338;28;47155;-88
2023/03/24 14:55:52;;;;;;;;;0.25;0.00;;;;;20.06;46.05;49702.06;4959303;28;45400;-87
2023/03/24 14:58:29;;;;;;;;;0.75;0.00;;;;;19.87;46.15;49817.25;4959015;28;45382;-88
2023/03/24 15:01:00;;;;;;;;;0.00;0.00;;;;;19.96;45.29;50217.38;4957600;28;45532;-85
2023/03/24 15:03:48;;;;;;;;;0.00;0.00;;;;;19.74;45.33;51208.09;4958485;28;46340;-86
2023/03/24 15:06:21;;;;;;;;;0.00;0.00;;;;;19.63;45.03;51198.66;4958924;28;45440;-86
2023/03/24 15:08:57;;;;;;;;;0.00;0.00;;;;;19.71;45.55;51143.94;4959428;28;45544;-85
2023/03/24 15:11:26;;;;;;;;;0.00;0.00;;;;;19.64;45.95;51023.28;4959244;28;45484;-87
2023/03/24 15:13:54;;;;;;;;;0.00;0.00;;;;;19.65;45.83;51010.81;4958968;28;46866;-88
2023/03/24 15:16:25;;;;;;;;;0.00;0.00;;;;;19.53;45.99;51441.19;4961178;28;45939;-95
2023/03/24 15:18:55;;;;;;;;;1.00;0.00;;;;;19.53;45.88;51256.47;4935059;28;45347;-93
2023/03/24 15:21:34;;;;;;;;;0.00;0.00;;;;;19.47;46.18;50992.09;4963328;28;45410;-96
2023/03/24 15:24:00;;;;;;;;;0.00;0.00;;;;;19.32;46.36;50928.47;4946404;28;47301;-90
2023/03/24 15:26:28;;;;;;;;;0.67;0.00;;;;;19.28;46.44;51306.59;4961717;28;45361;-92
2023/03/24 15:29:03;;;;;;;;;0.00;0.00;;;;;19.38;46.51;51302.66;4959679;28;45268;-92
2023/03/24 15:31:29;;;;;;;;;0.00;0.00;;;;;19.18;46.45;51375.47;4947509;28;45596;-93
2023/03/24 15:34:06;;;;;;;;;0.00;0.00;;;;;18.95;46.88;51107.13;4960904;28;45349;-91
2023/03/24 15:36:39;;;;;;;;;0.00;0.00;;;;;19.14;46.68;50835.47;4942892;28;45458;-93
2023/03/24 15:39:21;;;;;;;;;10.67;9.67;;;;;18.90;47.31;50099.78;4959721;28;45518;-94
2023/03/24 15:41:50;;;;;;;;;0.00;0.00;;;;;19.05;47.90;48003.03;4960361;28;45323;-92
2023/03/24 15:44:19;;;;;;;;;0.00;0.00;;;;;18.58;47.47;49160.63;4959459;28;45494;-92
2023/03/24 15:46:46;;;;;;;;;0.00;0.00;;;;;18.91;47.67;49609.97;4958049;28;45612;-91
2023/03/24 15:49:44;;;;;;;;;0.00;0.00;;;;;18.72;47.86;49535.66;4943319;28;45412;-91
2023/03/24 15:52:26;;;;;;;;;0.00;0.00;;;;;18.32;47.50;49629.69;4943793;28;45459;-95
2023/03/24 15:54:56;;;;;;;;;1.00;0.00;;;;;18.78;47.50;49548.47;4943137;28;48428;-92
2023/03/24 15:57:25;;;;;;;;;0.00;0.00;;;;;18.43;56.05;11248.78;4941356;28;45333;-92
2023/03/24 15:59:59;;;;;;;;;0.00;0.00;;;;;18.62;63.34;-18698.19;4956056;28;45423;-93
2023/03/24 16:02:40;;;;;;;;;0.00;0.00;;;;;18.00;69.43;-19689.53;4956678;28;45470;-92
2023/03/24 16:05:16;;;;;;;;;0.00;0.00;;;;;17.98;69.86;-19689.13;4956381;28;47654;-92
2023/03/24 16:07:41;;;;;;;;;0.00;0.00;;;;;17.67;72.67;-19681.09;4958069;28;45458;-93
2023/03/24 16:10:25;;;;;;;;;0.00;0.00;;;;;17.33;73.24;-19672.00;4940747;28;45508;-92
2023/03/24 16:12:51;;;;;;;;;0.00;0.00;;;;;17.01;71.84;-19663.69;4958645;28;45716;-91
2023/03/24 16:15:16;;;;;;;;;0.00;0.00;;;;;17.22;74.03;-19669.19;4959499;28;45424;-90
2023/03/24 16:17:42;;;;;;;;;0.00;0.00;;;;;16.72;73.76;-19656.19;4940679;28;45381;-92
2023/03/24 16:20:20;;;;;;;;;1.00;0.00;;;;;16.87;70.66;-19660.22;4940443;28;45402;-91
2023/03/24 16:22:45;;;;;;;;;0.00;0.00;;;;;17.05;68.52;-19664.91;4940973;28;45618;-91
2023/03/24 16:25:12;;;;;;;;;0.00;0.00;;;;;17.05;68.24;-19664.78;4957465;28;46035;-92
2023/03/24 16:27:38;;;;;;;;;0.00;0.00;;;;;16.90;67.08;-19660.88;4941132;28;45451;-93
2023/03/24 16:30:24;;;;;;;;;0.00;0.00;;;;;16.82;66.92;-19658.75;4958182;28;45356;-94
2023/03/24 16:32:50;;;;;;;;;0.00;0.00;;;;;16.82;66.49;-19658.75;4946904;28;45382;-91
2023/03/24 16:35:16;;;;;;;;;1.00;0.00;;;;;16.45;66.17;-19649.22;4945959;28;45492;-93
2023/03/24 16:37:41;;;;;;;;;0.00;0.00;;;;;16.44;65.60;-19648.97;4926297;28;45530;-91
2023/03/24 16:40:21;;;;;;;;;1.00;0.00;;;;;16.86;64.92;-19659.81;4939875;28;45402;-91
2023/03/24 16:42:46;;;;;;;;;0.00;0.00;;;;;16.83;65.83;-19659.00;4938527;28;45540;-94
2023/03/24 16:45:12;;;;;;;;;0.00;0.00;;;;;16.47;65.31;-19649.63;4938995;28;46979;-93
2023/03/24 16:47:37;;;;;;;;;0.00;0.00;;;;;16.66;65.69;-19654.59;4940588;28;46059;-93
2023/03/24 16:50:23;;;;;;;;;0.00;0.00;;;;;16.86;65.12;-19659.94;4958146;28;45381;-92
2023/03/24 16:52:49;;;;;;;;;0.67;0.00;;;;;16.86;65.47;-19659.94;4959078;28;45699;-91
2023/03/24 16:55:14;;;;;;;;;0.00;0.00;;;;;16.73;64.51;-19656.31;4940375;28;46308;-93
2023/03/24 16:57:39;;;;;;;;;0.00;0.00;;;;;16.73;65.16;-19656.31;4957631;28;45393;-93
2023/03/24 17:00:09;;;;;;;;;0.00;0.00;;;;;16.40;64.67;-19647.75;4939683;28;45505;-91
2023/03/24 17:02:36;;;;;;;;;0.00;0.00;;;;;16.72;64.13;-19656.06;4926879;28;45530;-91
2023/03/24 17:05:16;;;;;;;;;0.00;0.00;;;;;16.81;63.58;-19656.50;4938655;28;45425;-91
2023/03/24 17:07:41;;;;;;;;;0.00;0.00;;;;;16.70;63.31;-19653.69;4925514;28;45572;-92
2023/03/24 17:10:07;;;;;;;;;0.00;0.00;;;;;16.75;63.56;-19655.03;4947732;28;45495;-91
2023/03/24 17:12:32;;;;;;;;;0.00;0.00;;;;;16.78;63.71;-19655.72;4936964;28;45680;-91
2023/03/24 17:14:58;;;;;;;;;0.00;0.00;;;;;16.65;63.75;-19652.50;4944377;28;45441;-92
2023/03/24 17:17:23;;;;;;;;;0.00;0.00;;;;;16.56;64.17;-19650.09;4956801;28;45453;-91
2023/03/24 17:19:49;;;;;;;;;0.00;0.00;;;;;16.75;64.72;-19657.00;4960046;28;45399;-91
2023/03/24 17:22:17;;;;;;;;;0.00;0.00;;;;;16.39;64.19;-19645.66;4960376;28;45399;-91
2023/03/24 17:24:43;;;;;;;;;0.00;0.00;;;;;16.46;63.16;-19313.41;4961880;28;45334;-90
2023/03/24 17:27:17;;;;;;;;;0.00;0.00;;;;;16.65;62.77;-19318.38;4961405;28;45432;-90
2023/03/24 17:29:45;;;;;;;;;0.00;0.00;;;;;16.47;62.88;-18979.63;4949891;28;45381;-90
2023/03/24 17:32:10;;;;;;;;;0.00;0.00;;;;;16.48;63.08;-18979.88;4962797;28;45524;-91
2023/03/24 17:34:36;;;;;;;;;0.00;0.00;;;;;16.55;62.16;-18647.59;4961363;28;45386;-90
2023/03/24 17:37:03;;;;;;;;;0.00;0.00;;;;;16.30;61.93;-18307.41;4943331;28;45387;-92
2023/03/24 17:39:28;;;;;;;;;0.00;0.00;;;;;16.13;62.55;-18637.13;4947619;28;45441;-95
2023/03/24 17:41:56;;;;;;;;;1.00;0.00;;;;;16.39;63.14;-18977.56;4948539;28;44813;-92
2023/03/24 17:44:21;;;;;;;;;0.00;0.00;;;;;16.37;64.17;-19311.16;4946148;28;47622;-94
2023/03/24 17:46:47;;;;;;;;;0.00;0.00;;;;;16.22;63.62;-18973.47;4944277;28;45248;-93
2023/03/24 17:49:12;;;;;;;;;0.00;0.00;;;;;16.31;63.82;-18975.66;4944428;28;45341;-92
2023/03/24 17:51:37;;;;;;;;;0.00;0.00;;;;;16.01;63.39;-18634.38;4963800;28;45597;-92
2023/03/24 17:54:04;;;;;;;;;2.00;0.00;;;;;15.34;63.21;-18617.88;4961362;28;45338;-87
2023/03/24 17:56:29;;;;;;;;;0.00;0.00;;;;;15.93;63.00;-18298.44;4954458;28;45779;-90
2023/03/24 17:58:57;;;;;;;;;1.00;0.00;;;;;15.37;63.32;-17951.56;4943602;28;45540;-92
2023/03/24 18:01:23;;;;;;;;;0.00;0.00;;;;;15.67;62.85;-17958.44;4959688;28;45629;-91
2023/03/24 18:03:49;;;;;;;;;0.00;0.00;;;;;15.49;62.60;-17620.59;4962062;28;45986;-86
2023/03/24 18:06:15;;;;;;;;;0.00;0.00;;;;;15.74;63.01;-17626.50;4956562;28;45477;-87
2023/03/24 18:08:41;;;;;;;;;0.00;0.00;;;;;15.66;63.22;-17624.47;4934742;28;45585;-89
2023/03/24 18:11:13;;;;;;;;;0.00;0.00;;;;;15.54;62.99;-17621.78;4948129;28;45580;-89
2023/03/24 18:13:38;;;;;;;;;0.00;0.00;;;;;15.17;62.96;-17613.28;4946960;28;48354;-90
2023/03/24 18:16:06;;;;;;;;;0.00;0.00;;;;;15.45;62.44;-17286.00;4955338;28;45452;-90
2023/03/24 18:18:36;;;;;;;;;0.33;0.00;;;;;15.40;62.76;-17284.97;4954067;28;45484;-88
2023/03/24 18:21:02;;;;;;;;;0.00;0.00;;;;;15.30;62.54;-16949.09;4941060;28;45531;-89
2023/03/24 18:23:28;;;;;;;;;0.00;0.00;;;;;14.89;62.76;-16940.22;4956332;28;46153;-91
2023/03/24 18:26:03;;;;;;;;;1.00;0.00;;;;;15.32;62.74;-16949.53;4943798;28;45504;-89
2023/03/24 18:28:29;;;;;;;;;1.00;0.33;;;;;15.37;62.82;-16617.13;4958110;28;47682;-88
2023/03/24 18:30:55;;;;;;;;;0.00;0.00;;;;;14.71;62.49;-16602.97;4958492;28;45480;-87
2023/03/24 18:33:22;;;;;;;;;0.00;0.00;;;;;15.32;62.81;-16616.03;4957849;28;45970;-92
2023/03/24 18:35:52;;;;;;;;;0.00;0.00;;;;;15.33;62.26;-16282.47;4942898;28;45329;-85
2023/03/24 18:38:21;;;;;;;;;0.00;0.00;;;;;15.27;61.91;-16281.28;4956917;28;45414;-86
2023/03/24 18:40:57;;;;;;;;;1.00;0.00;;;;;15.25;60.86;-15613.53;4958687;28;45381;-86
2023/03/24 18:43:23;;;;;;;;;0.00;0.00;;;;;15.21;61.39;-15612.72;4957323;28;47027;-86
2023/03/24 18:45:49;;;;;;;;;0.00;0.00;;;;;14.73;61.39;-15269.75;4952169;28;45487;-89